createdAt,value
2019-03-17T00:07:56.232Z,11.60
2019-03-17T00:26:04.580Z,11.70
2019-03-17T00:28:35.123Z,11.80
2019-03-17T00:31:06.434Z,11.90
2019-03-17T00:33:37.267Z,11.80
2019-03-17T00:36:08.003Z,11.90
2019-03-17T00:38:38.868Z,11.80
2019-03-17T00:41:09.972Z,11.60
2019-03-17T00:43:43.648Z,11.60
2019-03-17T00:46:14.114Z,11.60
2019-03-17T00:48:46.822Z,11.70
2019-03-17T00:51:17.425Z,11.80
2019-03-17T00:53:48.651Z,11.80
2019-03-17T00:56:19.262Z,11.90
2019-03-17T00:58:51.690Z,11.90
2019-03-17T01:01:23.506Z,12.00
2019-03-17T01:03:54.519Z,12.20
2019-03-17T01:06:29.401Z,12.20
2019-03-17T01:09:00.864Z,12.20
2019-03-17T01:11:33.158Z,12.30
2019-03-17T01:14:08.036Z,12.30
2019-03-17T01:16:38.512Z,12.30
2019-03-17T01:19:09.464Z,12.30
2019-03-17T01:21:40.959Z,12.20
2019-03-17T01:24:11.367Z,12.20
2019-03-17T01:26:43.813Z,12.20
2019-03-17T01:29:16.590Z,12.10
2019-03-17T01:31:47.230Z,12.10
2019-03-17T01:34:22.369Z,12.10
2019-03-17T01:37:15.010Z,12.10
2019-03-17T01:39:45.644Z,12.10
2019-03-17T01:42:18.600Z,12.20
2019-03-17T01:44:50.245Z,12.20
2019-03-17T01:47:21.933Z,12.20
2019-03-17T01:49:52.495Z,12.20
2019-03-17T01:52:23.224Z,12.20
2019-03-17T01:54:54.348Z,12.10
2019-03-17T01:57:24.916Z,12.10
2019-03-17T01:59:55.402Z,12.10
2019-03-17T02:02:25.833Z,12.10
2019-03-17T02:04:56.474Z,12.00
2019-03-17T02:07:26.970Z,12.00
2019-03-17T02:09:58.349Z,11.90
2019-03-17T02:12:28.840Z,11.90
2019-03-17T02:15:02.888Z,11.90
2019-03-17T02:17:33.878Z,12.00
2019-03-17T02:20:04.473Z,12.00
2019-03-17T02:22:35.759Z,12.00
2019-03-17T02:25:06.289Z,12.10
2019-03-17T02:27:38.040Z,12.00
2019-03-17T02:30:09.293Z,11.90
2019-03-17T02:32:39.673Z,11.90
2019-03-17T02:35:10.348Z,11.90
2019-03-17T02:37:40.897Z,11.90
2019-03-17T02:40:11.651Z,11.90
2019-03-17T02:42:42.597Z,11.90
2019-03-17T02:45:13.160Z,11.80
2019-03-17T02:47:43.537Z,11.80
2019-03-17T02:50:14.083Z,11.80
2019-03-17T02:52:45.554Z,11.90
2019-03-17T02:55:16.324Z,11.90
2019-03-17T02:57:49.418Z,11.80
2019-03-17T03:00:20.678Z,11.80
2019-03-17T03:02:51.439Z,11.80
2019-03-17T03:05:21.913Z,11.70
2019-03-17T03:07:52.836Z,11.80
2019-03-17T03:10:25.372Z,11.80
2019-03-17T03:12:56.737Z,11.80
2019-03-17T03:15:27.108Z,11.80
2019-03-17T03:17:58.850Z,11.70
2019-03-17T03:20:29.333Z,11.70
2019-03-17T03:22:59.690Z,11.70
2019-03-17T03:25:30.659Z,11.70
2019-03-17T03:28:01.061Z,11.60
2019-03-17T03:30:31.563Z,11.50
2019-03-17T03:33:03.610Z,11.40
2019-03-17T03:35:34.075Z,11.30
2019-03-17T03:38:04.582Z,11.30
2019-03-17T03:40:36.011Z,11.40
2019-03-17T03:43:10.369Z,11.40
2019-03-17T03:45:40.954Z,11.50
2019-03-17T03:48:35.423Z,11.50
2019-03-17T03:51:06.270Z,11.60
2019-03-17T03:53:37.127Z,11.70
2019-03-17T03:56:07.519Z,11.70
2019-03-17T03:58:40.566Z,11.80
2019-03-17T04:01:13.159Z,11.80
2019-03-17T04:03:44.602Z,11.80
2019-03-17T04:06:26.402Z,11.80
2019-03-17T04:08:49.687Z,11.80
2019-03-17T04:11:23.797Z,11.70
2019-03-17T04:13:54.363Z,11.70
2019-03-17T04:16:25.707Z,11.60
2019-03-17T04:18:56.419Z,11.50
2019-03-17T04:21:26.997Z,11.50
2019-03-17T04:23:59.933Z,11.40
2019-03-17T04:26:30.325Z,11.40
2019-03-17T04:29:01.324Z,11.30
2019-03-17T04:31:33.312Z,11.30
2019-03-17T04:34:08.767Z,11.30
2019-03-17T04:36:40.705Z,11.30
2019-03-17T04:39:11.324Z,11.30
2019-03-17T04:41:41.927Z,11.30
2019-03-17T04:44:20.794Z,11.30
2019-03-17T04:46:44.833Z,11.20
2019-03-17T04:49:15.711Z,11.20
2019-03-17T04:51:46.171Z,11.20
2019-03-17T04:54:16.754Z,11.20
2019-03-17T04:56:47.248Z,11.20
2019-03-17T04:59:19.650Z,11.20
2019-03-17T05:01:53.073Z,11.30
2019-03-17T05:04:23.747Z,11.20
2019-03-17T05:06:58.244Z,11.30
2019-03-17T05:09:29.725Z,11.30
2019-03-17T05:12:00.508Z,11.40
2019-03-17T05:14:31.074Z,11.40
2019-03-17T05:17:01.562Z,11.40
2019-03-17T05:19:33.976Z,11.50
2019-03-17T05:22:04.855Z,11.50
2019-03-17T05:24:36.367Z,11.50
2019-03-17T05:27:15.086Z,11.50
2019-03-17T05:29:48.425Z,11.50
2019-03-17T05:32:19.172Z,11.40
2019-03-17T05:34:50.356Z,11.40
2019-03-17T05:37:22.527Z,11.40
2019-03-17T05:39:52.923Z,11.40
2019-03-17T05:42:23.801Z,11.50
2019-03-17T05:44:55.103Z,11.40
2019-03-17T05:47:27.845Z,11.50
2019-03-17T05:49:58.306Z,11.50
2019-03-17T05:52:28.772Z,11.50
2019-03-17T05:55:03.449Z,11.50
2019-03-17T05:57:33.940Z,11.50
2019-03-17T06:00:05.444Z,11.50
2019-03-17T06:02:35.973Z,11.50
2019-03-17T06:05:08.140Z,11.60
2019-03-17T06:07:38.715Z,11.60
2019-03-17T06:10:09.512Z,11.60
2019-03-17T06:12:40.686Z,11.60
2019-03-17T06:15:11.504Z,11.60
2019-03-17T06:17:43.413Z,11.50
2019-03-17T06:20:14.320Z,11.50
2019-03-17T06:22:51.521Z,11.50
2019-03-17T06:25:21.532Z,11.40
2019-03-17T06:27:52.086Z,11.40
2019-03-17T06:30:39.888Z,11.30
2019-03-17T06:33:43.659Z,11.30
2019-03-17T06:37:16.885Z,11.20
2019-03-17T06:39:51.460Z,11.20
2019-03-17T06:45:57.765Z,11.20
2019-03-17T06:49:27.977Z,11.30
2019-03-17T06:51:47.058Z,11.30
2019-03-17T06:54:20.699Z,11.30
2019-03-17T06:56:51.603Z,11.20
2019-03-17T06:59:25.387Z,11.10
2019-03-17T07:01:56.340Z,11.10
2019-03-17T07:04:26.509Z,11.00
2019-03-17T07:06:59.489Z,11.10
2019-03-17T07:09:44.809Z,11.10
2019-03-17T12:49:23.850Z,17.10
2019-03-17T12:51:54.343Z,17.10
2019-03-17T12:54:25.042Z,17.10
2019-03-17T12:56:55.211Z,17.10
2019-03-17T12:59:26.344Z,17.20
2019-03-17T13:01:57.119Z,17.20
2019-03-17T13:04:27.432Z,17.20
2019-03-17T13:06:58.882Z,17.20
2019-03-17T13:13:02.383Z,17.30
2019-03-17T13:16:08.064Z,17.30
2019-03-17T13:18:38.743Z,17.30
2019-03-17T13:21:10.667Z,17.30
2019-03-17T13:23:58.632Z,17.30
2019-03-17T13:26:40.000Z,17.30
2019-03-17T13:29:26.140Z,17.30
2019-03-17T13:32:03.944Z,17.30
2019-03-17T13:34:42.393Z,17.30
2019-03-17T13:37:13.645Z,17.30
2019-03-17T13:40:01.171Z,17.30
2019-03-17T13:42:41.974Z,17.40
2019-03-17T13:45:25.513Z,17.30
2019-03-17T13:48:34.936Z,17.40
2019-03-17T13:51:17.047Z,17.40
2019-03-17T13:53:59.915Z,17.30
2019-03-17T13:56:36.063Z,17.40
2019-03-17T13:59:22.687Z,17.40
2019-03-17T14:02:02.765Z,17.50
2019-03-17T14:04:32.522Z,17.40
2019-03-17T14:07:13.000Z,17.50
2019-03-17T14:09:49.941Z,17.50
2019-03-17T14:12:30.038Z,17.50
2019-03-17T14:15:23.762Z,17.60
2019-03-17T14:18:00.021Z,17.60
2019-03-17T14:20:40.612Z,17.60
2019-03-17T14:23:32.158Z,17.60
2019-03-17T14:26:26.955Z,17.60
2019-03-17T14:29:01.639Z,17.60
2019-03-17T14:31:41.990Z,17.50
2019-03-17T14:34:23.222Z,17.50
2019-03-17T14:37:04.023Z,17.50
2019-03-17T14:39:47.544Z,17.50
2019-03-17T14:42:22.735Z,17.40
2019-03-17T14:45:02.750Z,17.40
2019-03-17T14:48:11.410Z,17.40
2019-03-17T14:50:38.056Z,17.30
2019-03-17T14:53:28.545Z,17.30
2019-03-17T14:56:16.673Z,17.30
2019-03-17T14:58:52.062Z,17.20
2019-03-17T15:01:41.162Z,17.20
2019-03-17T15:04:48.855Z,17.20
2019-03-17T15:07:27.097Z,17.10
2019-03-17T15:10:20.280Z,17.10
2019-03-17T15:12:54.975Z,17.00
2019-03-17T15:15:34.240Z,17.00
2019-03-17T15:18:05.836Z,17.00
2019-03-17T15:20:46.231Z,17.00
2019-03-17T15:23:21.879Z,16.90
2019-03-17T15:25:56.020Z,16.90
2019-03-17T15:28:34.308Z,16.90
2019-03-17T15:31:12.386Z,16.80
2019-03-17T15:33:46.099Z,16.80
2019-03-17T15:36:31.037Z,16.80
2019-03-17T15:39:02.252Z,16.70
2019-03-17T15:41:37.921Z,16.70
2019-03-17T15:44:22.276Z,16.70
2019-03-17T15:46:56.125Z,16.60
2019-03-17T15:49:27.279Z,16.60
2019-03-17T15:52:04.989Z,16.60
2019-03-17T15:54:48.154Z,16.50
2019-03-17T15:57:31.237Z,16.50
2019-03-17T16:00:24.904Z,16.40
2019-03-17T16:03:17.580Z,16.40
2019-03-17T16:05:52.306Z,16.40
2019-03-17T16:09:42.423Z,16.30
2019-03-17T16:12:26.001Z,16.30
2019-03-17T16:15:17.589Z,16.20
2019-03-17T16:17:58.399Z,16.20
2019-03-17T16:21:04.651Z,16.20
2019-03-17T16:23:38.146Z,16.20
2019-03-17T16:26:18.146Z,16.10
2019-03-17T16:28:49.650Z,16.10
2019-03-17T16:31:22.641Z,16.00
2019-03-17T16:34:04.482Z,16.00
2019-03-17T16:36:43.222Z,16.00
2019-03-17T16:39:27.053Z,16.00
2019-03-17T16:42:06.765Z,15.90
2019-03-17T16:44:56.433Z,15.90
2019-03-17T16:47:41.702Z,15.90
2019-03-17T16:50:30.646Z,15.80
2019-03-17T16:53:20.905Z,15.80
2019-03-17T16:56:01.123Z,15.70
2019-03-17T16:59:02.301Z,15.50
2019-03-17T17:02:24.315Z,15.40
2019-03-17T17:17:17.606Z,14.50
2019-03-17T17:19:53.692Z,14.20
2019-03-17T17:22:38.974Z,13.80
2019-03-17T17:25:20.770Z,13.60
2019-03-17T17:28:02.343Z,13.40
2019-03-17T17:35:16.106Z,13.10
2019-03-17T17:38:48.721Z,12.80
2019-03-17T17:43:07.211Z,12.60
2019-03-17T17:45:31.890Z,12.40
2019-03-17T17:48:59.084Z,12.30
2019-03-17T17:51:43.217Z,12.00
2019-03-17T17:54:36.008Z,11.70
2019-03-17T17:57:29.970Z,11.60
2019-03-17T18:00:29.470Z,11.50
2019-03-17T18:03:32.116Z,11.40
2019-03-17T18:06:23.540Z,11.10
2019-03-17T18:09:42.207Z,10.90
2019-03-17T18:12:32.623Z,10.80
2019-03-17T18:15:53.246Z,10.80
2019-03-17T18:18:44.754Z,10.70
2019-03-17T18:26:04.843Z,10.60
2019-03-17T18:29:22.676Z,10.40
2019-03-17T18:32:56.281Z,10.10
2019-03-17T18:35:58.337Z,9.90
2019-03-17T18:38:44.211Z,9.50
2019-03-17T18:41:46.503Z,9.30
2019-03-17T18:44:38.237Z,9.20
2019-03-17T18:47:53.760Z,9.10
2019-03-17T18:50:30.535Z,9.10
2019-03-17T18:54:09.264Z,9.10
2019-03-17T18:58:01.882Z,9.10
2019-03-17T19:07:28.299Z,8.80
2019-03-17T19:14:51.696Z,8.70
2019-03-17T19:17:28.385Z,8.80
2019-03-17T19:20:02.649Z,8.90
2019-03-17T19:22:47.220Z,8.90
2019-03-17T19:25:22.929Z,9.00
2019-03-17T19:28:23.241Z,9.00
2019-03-17T19:31:16.279Z,9.00
2019-03-17T19:33:50.597Z,9.20
2019-03-17T19:40:41.361Z,9.40
2019-03-17T19:44:14.489Z,9.40
2019-03-17T19:46:57.740Z,9.40
2019-03-17T19:49:51.422Z,9.40
2019-03-17T20:38:02.430Z,9.00
2019-03-17T20:40:33.676Z,9.10
2019-03-17T20:43:20.280Z,9.10
2019-03-17T20:45:39.445Z,9.20
2019-03-17T20:48:11.682Z,9.30
2019-03-17T20:50:42.427Z,9.40
2019-03-17T20:53:13.350Z,9.40
2019-03-17T20:59:06.637Z,9.20
2019-03-17T21:01:50.371Z,9.00
2019-03-17T21:04:26.370Z,8.90
2019-03-17T21:07:33.447Z,8.90
2019-03-17T21:10:22.254Z,8.80
2019-03-17T21:13:02.754Z,8.80
2019-03-17T21:15:35.102Z,8.70
2019-03-17T21:18:09.363Z,8.60
2019-03-17T21:20:55.731Z,8.50
2019-03-17T21:23:32.508Z,8.50
2019-03-17T21:26:15.075Z,8.50
2019-03-17T21:28:50.119Z,8.50
2019-03-17T21:31:24.161Z,8.40
2019-03-17T21:33:59.294Z,8.40
2019-03-17T21:36:42.930Z,8.40
2019-03-17T21:39:37.906Z,8.50
2019-03-17T21:42:11.202Z,8.50
2019-03-17T21:44:43.755Z,8.50
2019-03-17T21:47:14.641Z,8.50
2019-03-17T21:49:46.726Z,8.50
2019-03-17T21:52:31.021Z,8.50
2019-03-17T21:55:02.234Z,8.60
2019-03-17T21:57:34.717Z,8.70
2019-03-17T22:00:47.392Z,8.60
2019-03-17T22:03:21.845Z,8.60
2019-03-17T22:05:55.799Z,8.50
2019-03-17T22:08:30.064Z,8.40
2019-03-17T22:11:05.594Z,8.30
2019-03-17T22:13:37.952Z,8.20
2019-03-17T22:19:12.419Z,8.20
2019-03-17T22:21:48.122Z,8.20
2019-03-17T22:24:20.257Z,8.20
2019-03-17T22:27:11.747Z,8.20
2019-03-17T22:29:50.784Z,8.20
2019-03-17T22:32:21.471Z,8.30
2019-03-17T22:34:52.965Z,8.20
2019-03-17T22:37:27.342Z,8.20
2019-03-17T22:39:58.817Z,8.20
2019-03-17T22:42:29.363Z,8.30
2019-03-17T22:45:00.620Z,8.30
2019-03-17T22:47:35.392Z,8.40
2019-03-17T22:50:07.171Z,8.40
2019-03-17T22:52:41.935Z,8.20
2019-03-17T22:55:16.106Z,8.30
2019-03-17T22:57:48.745Z,8.20
2019-03-17T23:00:24.104Z,8.30
2019-03-17T23:02:57.680Z,8.30
2019-03-17T23:05:28.323Z,8.20
2019-03-17T23:07:59.545Z,8.20
2019-03-17T23:10:30.293Z,8.20
2019-03-17T23:13:00.775Z,8.30
2019-03-17T23:15:37.085Z,8.20
2019-03-17T23:18:07.670Z,8.10
2019-03-17T23:20:38.181Z,8.00
2019-03-17T23:23:08.775Z,7.90
2019-03-17T23:25:39.336Z,7.90
2019-03-17T23:28:09.865Z,8.00
2019-03-17T23:30:40.859Z,8.10
2019-03-17T23:33:11.915Z,8.20
2019-03-17T23:35:43.424Z,8.30
2019-03-17T23:38:13.978Z,8.40
2019-03-17T23:40:44.430Z,8.30
2019-03-17T23:43:14.989Z,8.30
2019-03-17T23:45:45.541Z,8.40
2019-03-17T23:48:16.145Z,8.40
2019-03-17T23:50:46.657Z,8.40
2019-03-17T23:53:18.168Z,8.50
2019-03-17T23:55:48.522Z,8.50
2019-03-17T23:58:19.427Z,8.60
